sensor_id;sensor_type;location;lat;lon;timestamp;P1;durP1;ratioP1;P2;durP2;ratioP2
11348;SDS011;5729;43.570;27.826;2023-06-26T00:02:14;20.23;;;6.68;;
11348;SDS011;5729;43.570;27.826;2023-06-26T00:04:42;22.08;;;6.78;;
11348;SDS011;5729;43.570;27.826;2023-06-26T00:07:08;20.70;;;6.15;;
11348;SDS011;5729;43.570;27.826;2023-06-26T00:09:34;17.35;;;6.90;;
11348;SDS011;5729;43.570;27.826;2023-06-26T00:12:00;13.80;;;6.22;;
11348;SDS011;5729;43.570;27.826;2023-06-26T00:14:25;16.65;;;5.93;;
11348;SDS011;5729;43.570;27.826;2023-06-26T00:16:51;13.45;;;6.20;;
11348;SDS011;5729;43.570;27.826;2023-06-26T00:19:17;12.98;;;6.18;;
11348;SDS011;5729;43.570;27.826;2023-06-26T00:21:43;15.40;;;5.95;;
11348;SDS011;5729;43.570;27.826;2023-06-26T00:24:13;11.85;;;7.00;;
11348;SDS011;5729;43.570;27.826;2023-06-26T00:26:39;9.02;;;6.72;;
11348;SDS011;5729;43.570;27.826;2023-06-26T00:29:05;11.23;;;7.00;;
11348;SDS011;5729;43.570;27.826;2023-06-26T00:31:30;11.82;;;7.55;;
11348;SDS011;5729;43.570;27.826;2023-06-26T00:33:55;16.58;;;8.15;;
11348;SDS011;5729;43.570;27.826;2023-06-26T00:36:21;15.95;;;7.18;;
11348;SDS011;5729;43.570;27.826;2023-06-26T00:38:49;14.73;;;7.28;;
11348;SDS011;5729;43.570;27.826;2023-06-26T00:41:14;11.45;;;7.22;;
11348;SDS011;5729;43.570;27.826;2023-06-26T00:43:40;17.30;;;7.85;;
11348;SDS011;5729;43.570;27.826;2023-06-26T00:46:06;17.48;;;7.80;;
11348;SDS011;5729;43.570;27.826;2023-06-26T00:48:34;12.98;;;9.10;;
11348;SDS011;5729;43.570;27.826;2023-06-26T00:50:59;15.85;;;8.73;;
11348;SDS011;5729;43.570;27.826;2023-06-26T00:53:25;24.02;;;9.07;;
11348;SDS011;5729;43.570;27.826;2023-06-26T00:55:51;26.05;;;10.05;;
11348;SDS011;5729;43.570;27.826;2023-06-26T00:58:16;21.92;;;10.82;;
11348;SDS011;5729;43.570;27.826;2023-06-26T01:00:42;16.45;;;10.63;;
11348;SDS011;5729;43.570;27.826;2023-06-26T01:03:10;32.80;;;11.90;;
11348;SDS011;5729;43.570;27.826;2023-06-26T01:05:36;29.45;;;11.90;;
11348;SDS011;5729;43.570;27.826;2023-06-26T01:08:03;22.17;;;13.32;;
11348;SDS011;5729;43.570;27.826;2023-06-26T01:10:30;20.30;;;12.35;;
11348;SDS011;5729;43.570;27.826;2023-06-26T01:12:56;21.23;;;12.23;;
11348;SDS011;5729;43.570;27.826;2023-06-26T01:15:22;22.70;;;13.25;;
11348;SDS011;5729;43.570;27.826;2023-06-26T01:17:48;35.85;;;13.35;;
11348;SDS011;5729;43.570;27.826;2023-06-26T01:20:16;24.60;;;15.50;;
11348;SDS011;5729;43.570;27.826;2023-06-26T01:22:57;23.55;;;15.07;;
11348;SDS011;5729;43.570;27.826;2023-06-26T01:28:33;27.58;;;16.33;;
11348;SDS011;5729;43.570;27.826;2023-06-26T01:31:00;20.77;;;16.20;;
11348;SDS011;5729;43.570;27.826;2023-06-26T01:33:29;30.38;;;16.52;;
11348;SDS011;5729;43.570;27.826;2023-06-26T01:35:56;30.35;;;17.20;;
11348;SDS011;5729;43.570;27.826;2023-06-26T01:38:21;32.30;;;18.63;;
11348;SDS011;5729;43.570;27.826;2023-06-26T01:40:51;26.17;;;15.93;;
11348;SDS011;5729;43.570;27.826;2023-06-26T01:43:20;24.65;;;16.33;;
11348;SDS011;5729;43.570;27.826;2023-06-26T01:45:54;29.95;;;17.58;;
11348;SDS011;5729;43.570;27.826;2023-06-26T01:48:25;32.58;;;18.08;;
11348;SDS011;5729;43.570;27.826;2023-06-26T01:50:55;28.83;;;18.90;;
11348;SDS011;5729;43.570;27.826;2023-06-26T01:53:24;29.08;;;18.15;;
11348;SDS011;5729;43.570;27.826;2023-06-26T01:58:25;29.08;;;17.50;;
11348;SDS011;5729;43.570;27.826;2023-06-26T02:00:52;25.83;;;17.05;;
11348;SDS011;5729;43.570;27.826;2023-06-26T02:03:18;27.88;;;17.52;;
11348;SDS011;5729;43.570;27.826;2023-06-26T02:05:45;27.98;;;17.88;;
11348;SDS011;5729;43.570;27.826;2023-06-26T02:08:12;21.77;;;16.73;;
11348;SDS011;5729;43.570;27.826;2023-06-26T02:10:39;21.75;;;16.13;;
11348;SDS011;5729;43.570;27.826;2023-06-26T02:13:04;24.58;;;16.02;;
11348;SDS011;5729;43.570;27.826;2023-06-26T02:15:30;25.08;;;15.40;;
11348;SDS011;5729;43.570;27.826;2023-06-26T02:17:55;20.65;;;15.27;;
11348;SDS011;5729;43.570;27.826;2023-06-26T02:20:21;22.48;;;15.65;;
11348;SDS011;5729;43.570;27.826;2023-06-26T02:22:46;25.63;;;15.70;;
11348;SDS011;5729;43.570;27.826;2023-06-26T02:25:11;24.23;;;16.48;;
11348;SDS011;5729;43.570;27.826;2023-06-26T02:27:37;22.52;;;16.17;;
11348;SDS011;5729;43.570;27.826;2023-06-26T02:30:03;20.65;;;16.23;;
11348;SDS011;5729;43.570;27.826;2023-06-26T02:32:29;24.30;;;15.80;;
11348;SDS011;5729;43.570;27.826;2023-06-26T02:34:55;20.23;;;15.45;;
11348;SDS011;5729;43.570;27.826;2023-06-26T02:37:20;25.55;;;17.00;;
11348;SDS011;5729;43.570;27.826;2023-06-26T02:39:46;22.52;;;17.23;;
11348;SDS011;5729;43.570;27.826;2023-06-26T02:42:11;21.75;;;16.90;;
11348;SDS011;5729;43.570;27.826;2023-06-26T02:44:37;34.33;;;16.83;;
11348;SDS011;5729;43.570;27.826;2023-06-26T02:47:02;30.20;;;18.67;;
11348;SDS011;5729;43.570;27.826;2023-06-26T02:49:28;26.75;;;17.40;;
11348;SDS011;5729;43.570;27.826;2023-06-26T02:51:54;24.83;;;17.98;;
11348;SDS011;5729;43.570;27.826;2023-06-26T02:54:21;26.30;;;17.05;;
11348;SDS011;5729;43.570;27.826;2023-06-26T02:56:46;20.48;;;16.85;;
11348;SDS011;5729;43.570;27.826;2023-06-26T02:59:12;22.42;;;18.13;;
11348;SDS011;5729;43.570;27.826;2023-06-26T03:01:37;24.10;;;17.30;;
11348;SDS011;5729;43.570;27.826;2023-06-26T03:04:03;29.25;;;18.02;;
11348;SDS011;5729;43.570;27.826;2023-06-26T03:06:29;24.90;;;18.05;;
11348;SDS011;5729;43.570;27.826;2023-06-26T03:08:54;25.63;;;17.90;;
11348;SDS011;5729;43.570;27.826;2023-06-26T03:11:20;21.13;;;17.90;;
11348;SDS011;5729;43.570;27.826;2023-06-26T03:13:45;25.05;;;19.15;;
11348;SDS011;5729;43.570;27.826;2023-06-26T03:16:11;26.95;;;19.08;;
11348;SDS011;5729;43.570;27.826;2023-06-26T03:18:36;22.75;;;17.30;;
11348;SDS011;5729;43.570;27.826;2023-06-26T03:21:02;16.58;;;14.52;;
11348;SDS011;5729;43.570;27.826;2023-06-26T03:23:27;19.95;;;14.68;;
11348;SDS011;5729;43.570;27.826;2023-06-26T03:25:53;13.57;;;11.52;;
11348;SDS011;5729;43.570;27.826;2023-06-26T03:28:18;14.50;;;10.90;;
11348;SDS011;5729;43.570;27.826;2023-06-26T03:30:44;14.38;;;9.55;;
11348;SDS011;5729;43.570;27.826;2023-06-26T03:33:09;10.75;;;9.50;;
11348;SDS011;5729;43.570;27.826;2023-06-26T03:35:35;16.13;;;10.02;;
11348;SDS011;5729;43.570;27.826;2023-06-26T03:38:00;10.25;;;9.15;;
11348;SDS011;5729;43.570;27.826;2023-06-26T03:40:26;12.15;;;9.40;;
11348;SDS011;5729;43.570;27.826;2023-06-26T03:42:52;11.30;;;8.75;;
11348;SDS011;5729;43.570;27.826;2023-06-26T03:45:17;9.88;;;8.00;;
11348;SDS011;5729;43.570;27.826;2023-06-26T03:47:44;10.45;;;7.13;;
11348;SDS011;5729;43.570;27.826;2023-06-26T03:50:12;8.23;;;6.38;;
11348;SDS011;5729;43.570;27.826;2023-06-26T03:52:37;10.23;;;5.70;;
11348;SDS011;5729;43.570;27.826;2023-06-26T03:55:03;13.57;;;6.45;;
11348;SDS011;5729;43.570;27.826;2023-06-26T03:57:29;10.07;;;5.53;;
11348;SDS011;5729;43.570;27.826;2023-06-26T03:59:54;7.28;;;5.43;;
11348;SDS011;5729;43.570;27.826;2023-06-26T04:02:20;7.45;;;5.32;;
11348;SDS011;5729;43.570;27.826;2023-06-26T04:04:45;6.53;;;5.30;;
11348;SDS011;5729;43.570;27.826;2023-06-26T04:07:11;7.05;;;5.25;;
11348;SDS011;5729;43.570;27.826;2023-06-26T04:09:36;7.00;;;5.35;;
11348;SDS011;5729;43.570;27.826;2023-06-26T04:12:02;7.32;;;6.43;;
11348;SDS011;5729;43.570;27.826;2023-06-26T04:14:28;13.75;;;7.10;;
11348;SDS011;5729;43.570;27.826;2023-06-26T04:16:53;8.50;;;7.70;;
11348;SDS011;5729;43.570;27.826;2023-06-26T04:19:19;8.63;;;7.78;;
11348;SDS011;5729;43.570;27.826;2023-06-26T04:21:44;11.00;;;9.10;;
11348;SDS011;5729;43.570;27.826;2023-06-26T04:24:10;13.40;;;9.25;;
11348;SDS011;5729;43.570;27.826;2023-06-26T04:26:35;15.20;;;9.82;;
11348;SDS011;5729;43.570;27.826;2023-06-26T04:29:01;14.23;;;10.27;;
11348;SDS011;5729;43.570;27.826;2023-06-26T04:31:26;13.63;;;10.50;;
11348;SDS011;5729;43.570;27.826;2023-06-26T04:33:52;14.93;;;11.75;;
11348;SDS011;5729;43.570;27.826;2023-06-26T04:36:19;17.13;;;11.73;;
11348;SDS011;5729;43.570;27.826;2023-06-26T04:38:45;14.93;;;11.38;;
11348;SDS011;5729;43.570;27.826;2023-06-26T04:41:13;12.93;;;11.52;;
11348;SDS011;5729;43.570;27.826;2023-06-26T04:43:38;15.98;;;12.43;;
11348;SDS011;5729;43.570;27.826;2023-06-26T04:46:05;14.35;;;12.57;;
11348;SDS011;5729;43.570;27.826;2023-06-26T04:48:30;16.90;;;13.60;;
11348;SDS011;5729;43.570;27.826;2023-06-26T04:50:56;16.88;;;14.45;;
11348;SDS011;5729;43.570;27.826;2023-06-26T04:53:24;19.05;;;14.95;;
11348;SDS011;5729;43.570;27.826;2023-06-26T04:55:50;18.40;;;15.48;;
11348;SDS011;5729;43.570;27.826;2023-06-26T04:58:18;18.25;;;15.45;;
11348;SDS011;5729;43.570;27.826;2023-06-26T05:00:44;19.23;;;17.25;;
11348;SDS011;5729;43.570;27.826;2023-06-26T05:03:10;18.70;;;15.98;;
11348;SDS011;5729;43.570;27.826;2023-06-26T05:05:37;22.63;;;17.00;;
11348;SDS011;5729;43.570;27.826;2023-06-26T05:08:16;20.60;;;17.88;;
11348;SDS011;5729;43.570;27.826;2023-06-26T05:10:42;21.38;;;18.63;;
11348;SDS011;5729;43.570;27.826;2023-06-26T05:13:08;26.58;;;19.05;;
11348;SDS011;5729;43.570;27.826;2023-06-26T05:15:34;22.85;;;19.00;;
11348;SDS011;5729;43.570;27.826;2023-06-26T05:17:59;28.17;;;18.73;;
11348;SDS011;5729;43.570;27.826;2023-06-26T05:20:25;28.25;;;19.38;;
11348;SDS011;5729;43.570;27.826;2023-06-26T05:22:50;22.02;;;17.90;;
11348;SDS011;5729;43.570;27.826;2023-06-26T05:25:16;26.02;;;18.02;;
11348;SDS011;5729;43.570;27.826;2023-06-26T05:27:43;25.83;;;17.77;;
11348;SDS011;5729;43.570;27.826;2023-06-26T05:30:09;24.65;;;17.38;;
11348;SDS011;5729;43.570;27.826;2023-06-26T05:32:37;23.58;;;16.88;;
11348;SDS011;5729;43.570;27.826;2023-06-26T05:35:04;19.58;;;16.90;;
11348;SDS011;5729;43.570;27.826;2023-06-26T05:37:31;18.35;;;16.45;;
11348;SDS011;5729;43.570;27.826;2023-06-26T05:39:57;19.77;;;16.58;;
11348;SDS011;5729;43.570;27.826;2023-06-26T05:42:23;17.40;;;15.48;;
11348;SDS011;5729;43.570;27.826;2023-06-26T05:44:49;17.58;;;15.30;;
11348;SDS011;5729;43.570;27.826;2023-06-26T05:47:14;19.98;;;15.18;;
11348;SDS011;5729;43.570;27.826;2023-06-26T05:49:40;22.55;;;15.60;;
11348;SDS011;5729;43.570;27.826;2023-06-26T05:52:05;18.65;;;15.52;;
11348;SDS011;5729;43.570;27.826;2023-06-26T05:54:31;19.38;;;16.45;;
11348;SDS011;5729;43.570;27.826;2023-06-26T05:56:58;17.05;;;15.25;;
11348;SDS011;5729;43.570;27.826;2023-06-26T05:59:27;19.33;;;16.52;;
11348;SDS011;5729;43.570;27.826;2023-06-26T06:01:55;20.35;;;16.00;;
11348;SDS011;5729;43.570;27.826;2023-06-26T06:04:20;23.10;;;16.48;;
11348;SDS011;5729;43.570;27.826;2023-06-26T06:06:46;17.27;;;15.38;;
11348;SDS011;5729;43.570;27.826;2023-06-26T06:09:12;18.23;;;15.35;;
11348;SDS011;5729;43.570;27.826;2023-06-26T06:11:38;21.17;;;15.23;;
11348;SDS011;5729;43.570;27.826;2023-06-26T06:14:03;20.30;;;14.75;;
11348;SDS011;5729;43.570;27.826;2023-06-26T06:16:29;22.05;;;14.93;;
11348;SDS011;5729;43.570;27.826;2023-06-26T06:18:55;20.25;;;14.98;;
11348;SDS011;5729;43.570;27.826;2023-06-26T06:21:21;17.38;;;13.52;;
11348;SDS011;5729;43.570;27.826;2023-06-26T06:23:46;14.27;;;12.77;;
11348;SDS011;5729;43.570;27.826;2023-06-26T06:26:11;15.30;;;13.00;;
11348;SDS011;5729;43.570;27.826;2023-06-26T06:28:38;13.90;;;12.50;;
11348;SDS011;5729;43.570;27.826;2023-06-26T06:31:03;21.63;;;11.05;;
11348;SDS011;5729;43.570;27.826;2023-06-26T06:33:29;17.67;;;10.75;;
11348;SDS011;5729;43.570;27.826;2023-06-26T06:35:54;12.68;;;9.80;;
11348;SDS011;5729;43.570;27.826;2023-06-26T06:38:20;10.98;;;9.88;;
11348;SDS011;5729;43.570;27.826;2023-06-26T06:40:45;13.02;;;10.18;;
11348;SDS011;5729;43.570;27.826;2023-06-26T06:43:11;23.77;;;10.13;;
11348;SDS011;5729;43.570;27.826;2023-06-26T06:45:36;14.52;;;10.23;;
11348;SDS011;5729;43.570;27.826;2023-06-26T06:48:03;12.85;;;10.13;;
11348;SDS011;5729;43.570;27.826;2023-06-26T06:50:29;18.55;;;10.73;;
11348;SDS011;5729;43.570;27.826;2023-06-26T06:52:54;14.60;;;10.02;;
11348;SDS011;5729;43.570;27.826;2023-06-26T06:55:20;13.52;;;9.38;;
11348;SDS011;5729;43.570;27.826;2023-06-26T06:57:45;11.50;;;9.52;;
11348;SDS011;5729;43.570;27.826;2023-06-26T07:00:11;10.43;;;9.02;;
11348;SDS011;5729;43.570;27.826;2023-06-26T07:02:39;12.93;;;9.52;;
11348;SDS011;5729;43.570;27.826;2023-06-26T07:05:09;16.77;;;9.43;;
11348;SDS011;5729;43.570;27.826;2023-06-26T07:07:35;12.82;;;9.25;;
11348;SDS011;5729;43.570;27.826;2023-06-26T07:10:05;13.98;;;8.98;;
11348;SDS011;5729;43.570;27.826;2023-06-26T07:12:33;12.07;;;8.90;;
11348;SDS011;5729;43.570;27.826;2023-06-26T07:15:00;18.98;;;8.82;;
11348;SDS011;5729;43.570;27.826;2023-06-26T07:17:25;11.77;;;9.23;;
11348;SDS011;5729;43.570;27.826;2023-06-26T07:19:51;13.68;;;8.35;;
11348;SDS011;5729;43.570;27.826;2023-06-26T07:22:16;11.38;;;9.00;;
11348;SDS011;5729;43.570;27.826;2023-06-26T07:24:45;11.48;;;8.40;;
11348;SDS011;5729;43.570;27.826;2023-06-26T07:27:10;12.40;;;9.13;;
11348;SDS011;5729;43.570;27.826;2023-06-26T07:29:36;11.48;;;7.82;;
11348;SDS011;5729;43.570;27.826;2023-06-26T07:32:01;12.07;;;7.88;;
11348;SDS011;5729;43.570;27.826;2023-06-26T07:34:27;9.70;;;8.32;;
11348;SDS011;5729;43.570;27.826;2023-06-26T07:36:52;15.10;;;8.80;;
11348;SDS011;5729;43.570;27.826;2023-06-26T07:39:18;15.85;;;8.15;;
11348;SDS011;5729;43.570;27.826;2023-06-26T07:41:43;11.25;;;7.55;;
11348;SDS011;5729;43.570;27.826;2023-06-26T07:44:09;10.20;;;7.90;;
11348;SDS011;5729;43.570;27.826;2023-06-26T07:46:34;11.68;;;8.07;;
11348;SDS011;5729;43.570;27.826;2023-06-26T07:48:59;13.68;;;8.30;;
11348;SDS011;5729;43.570;27.826;2023-06-26T07:51:25;10.85;;;9.07;;
11348;SDS011;5729;43.570;27.826;2023-06-26T07:53:50;11.38;;;8.50;;
11348;SDS011;5729;43.570;27.826;2023-06-26T07:56:17;12.60;;;7.95;;
11348;SDS011;5729;43.570;27.826;2023-06-26T07:58:42;10.65;;;7.97;;
11348;SDS011;5729;43.570;27.826;2023-06-26T08:01:08;10.40;;;8.05;;
11348;SDS011;5729;43.570;27.826;2023-06-26T08:03:34;10.88;;;7.65;;
11348;SDS011;5729;43.570;27.826;2023-06-26T08:05:59;16.63;;;8.95;;
11348;SDS011;5729;43.570;27.826;2023-06-26T08:08:25;15.25;;;8.85;;
11348;SDS011;5729;43.570;27.826;2023-06-26T08:10:50;11.77;;;7.60;;
11348;SDS011;5729;43.570;27.826;2023-06-26T08:13:16;14.80;;;7.75;;
11348;SDS011;5729;43.570;27.826;2023-06-26T08:15:41;12.90;;;7.05;;
11348;SDS011;5729;43.570;27.826;2023-06-26T08:18:07;13.45;;;7.60;;
11348;SDS011;5729;43.570;27.826;2023-06-26T08:20:32;9.65;;;6.47;;
11348;SDS011;5729;43.570;27.826;2023-06-26T08:22:57;9.27;;;6.80;;
11348;SDS011;5729;43.570;27.826;2023-06-26T08:25:23;8.05;;;6.32;;
11348;SDS011;5729;43.570;27.826;2023-06-26T08:27:48;7.68;;;6.97;;
11348;SDS011;5729;43.570;27.826;2023-06-26T08:30:14;15.30;;;6.78;;
11348;SDS011;5729;43.570;27.826;2023-06-26T08:32:39;9.07;;;6.90;;
11348;SDS011;5729;43.570;27.826;2023-06-26T08:35:05;8.95;;;5.68;;
11348;SDS011;5729;43.570;27.826;2023-06-26T08:37:31;12.63;;;6.38;;
11348;SDS011;5729;43.570;27.826;2023-06-26T08:39:57;11.40;;;5.55;;
11348;SDS011;5729;43.570;27.826;2023-06-26T08:42:24;8.57;;;6.45;;
11348;SDS011;5729;43.570;27.826;2023-06-26T08:44:50;10.35;;;7.05;;
11348;SDS011;5729;43.570;27.826;2023-06-26T08:47:15;11.10;;;6.43;;
11348;SDS011;5729;43.570;27.826;2023-06-26T08:49:50;20.65;;;6.85;;
11348;SDS011;5729;43.570;27.826;2023-06-26T08:52:23;6.80;;;5.90;;
11348;SDS011;5729;43.570;27.826;2023-06-26T08:54:56;7.15;;;5.40;;
11348;SDS011;5729;43.570;27.826;2023-06-26T08:57:23;9.65;;;5.50;;
11348;SDS011;5729;43.570;27.826;2023-06-26T08:59:51;8.23;;;4.95;;
11348;SDS011;5729;43.570;27.826;2023-06-26T09:02:17;8.02;;;5.07;;
11348;SDS011;5729;43.570;27.826;2023-06-26T09:04:42;8.50;;;5.65;;
11348;SDS011;5729;43.570;27.826;2023-06-26T09:07:08;7.10;;;5.20;;
11348;SDS011;5729;43.570;27.826;2023-06-26T09:09:34;6.60;;;4.75;;
11348;SDS011;5729;43.570;27.826;2023-06-26T09:12:01;6.72;;;5.10;;
11348;SDS011;5729;43.570;27.826;2023-06-26T09:14:28;7.82;;;5.10;;
11348;SDS011;5729;43.570;27.826;2023-06-26T09:16:54;7.00;;;4.63;;
11348;SDS011;5729;43.570;27.826;2023-06-26T09:19:20;5.65;;;4.47;;
11348;SDS011;5729;43.570;27.826;2023-06-26T09:21:46;11.93;;;4.60;;
11348;SDS011;5729;43.570;27.826;2023-06-26T09:24:16;6.38;;;4.32;;
11348;SDS011;5729;43.570;27.826;2023-06-26T09:26:42;5.93;;;4.10;;
11348;SDS011;5729;43.570;27.826;2023-06-26T09:29:08;5.00;;;4.47;;
11348;SDS011;5729;43.570;27.826;2023-06-26T09:31:37;6.75;;;4.60;;
11348;SDS011;5729;43.570;27.826;2023-06-26T09:34:04;8.65;;;4.13;;
11348;SDS011;5729;43.570;27.826;2023-06-26T09:36:31;7.57;;;4.45;;
11348;SDS011;5729;43.570;27.826;2023-06-26T09:39:01;7.80;;;4.03;;
11348;SDS011;5729;43.570;27.826;2023-06-26T09:41:33;7.90;;;3.67;;
11348;SDS011;5729;43.570;27.826;2023-06-26T09:44:02;6.63;;;4.10;;
11348;SDS011;5729;43.570;27.826;2023-06-26T09:46:31;6.47;;;4.22;;
11348;SDS011;5729;43.570;27.826;2023-06-26T09:49:06;7.60;;;4.43;;
11348;SDS011;5729;43.570;27.826;2023-06-26T09:51:34;7.68;;;3.65;;
11348;SDS011;5729;43.570;27.826;2023-06-26T09:54:01;4.88;;;4.00;;
11348;SDS011;5729;43.570;27.826;2023-06-26T09:56:27;7.32;;;4.13;;
11348;SDS011;5729;43.570;27.826;2023-06-26T09:58:56;7.40;;;4.03;;
11348;SDS011;5729;43.570;27.826;2023-06-26T10:01:23;4.57;;;3.97;;
11348;SDS011;5729;43.570;27.826;2023-06-26T10:03:49;8.90;;;4.13;;
11348;SDS011;5729;43.570;27.826;2023-06-26T10:06:14;9.07;;;3.65;;
11348;SDS011;5729;43.570;27.826;2023-06-26T10:08:49;6.40;;;3.40;;
11348;SDS011;5729;43.570;27.826;2023-06-26T10:11:16;10.35;;;4.20;;
11348;SDS011;5729;43.570;27.826;2023-06-26T10:13:47;7.15;;;4.18;;
11348;SDS011;5729;43.570;27.826;2023-06-26T10:16:17;10.13;;;4.32;;
11348;SDS011;5729;43.570;27.826;2023-06-26T10:18:56;9.02;;;4.43;;
11348;SDS011;5729;43.570;27.826;2023-06-26T10:21:29;7.25;;;4.18;;
11348;SDS011;5729;43.570;27.826;2023-06-26T10:23:56;12.75;;;4.68;;
11348;SDS011;5729;43.570;27.826;2023-06-26T10:26:22;7.53;;;4.18;;
11348;SDS011;5729;43.570;27.826;2023-06-26T10:28:50;5.53;;;3.90;;
11348;SDS011;5729;43.570;27.826;2023-06-26T10:31:23;4.93;;;4.00;;
11348;SDS011;5729;43.570;27.826;2023-06-26T10:34:00;13.73;;;4.65;;
11348;SDS011;5729;43.570;27.826;2023-06-26T10:36:27;4.78;;;3.80;;
11348;SDS011;5729;43.570;27.826;2023-06-26T10:38:55;7.68;;;3.35;;
11348;SDS011;5729;43.570;27.826;2023-06-26T10:41:23;5.28;;;3.67;;
11348;SDS011;5729;43.570;27.826;2023-06-26T10:46:24;11.07;;;4.10;;
11348;SDS011;5729;43.570;27.826;2023-06-26T10:48:59;7.75;;;4.05;;
11348;SDS011;5729;43.570;27.826;2023-06-26T10:51:28;4.43;;;3.70;;
11348;SDS011;5729;43.570;27.826;2023-06-26T10:53:57;9.05;;;3.58;;
11348;SDS011;5729;43.570;27.826;2023-06-26T10:56:42;4.82;;;3.67;;
11348;SDS011;5729;43.570;27.826;2023-06-26T10:59:18;6.50;;;3.88;;
11348;SDS011;5729;43.570;27.826;2023-06-26T11:01:45;5.70;;;3.58;;
11348;SDS011;5729;43.570;27.826;2023-06-26T11:04:21;7.07;;;3.75;;
11348;SDS011;5729;43.570;27.826;2023-06-26T11:07:14;5.18;;;3.85;;
11348;SDS011;5729;43.570;27.826;2023-06-26T11:12:39;6.95;;;3.92;;
11348;SDS011;5729;43.570;27.826;2023-06-26T11:15:13;4.60;;;3.15;;
11348;SDS011;5729;43.570;27.826;2023-06-26T11:17:41;6.72;;;3.88;;
11348;SDS011;5729;43.570;27.826;2023-06-26T11:20:08;8.15;;;4.15;;
11348;SDS011;5729;43.570;27.826;2023-06-26T11:22:36;5.03;;;3.88;;
11348;SDS011;5729;43.570;27.826;2023-06-26T11:25:03;4.57;;;4.13;;
11348;SDS011;5729;43.570;27.826;2023-06-26T11:27:31;4.75;;;3.45;;
11348;SDS011;5729;43.570;27.826;2023-06-26T11:29:57;12.18;;;3.80;;
11348;SDS011;5729;43.570;27.826;2023-06-26T11:32:23;8.45;;;3.88;;
11348;SDS011;5729;43.570;27.826;2023-06-26T11:34:52;6.90;;;3.80;;
11348;SDS011;5729;43.570;27.826;2023-06-26T11:37:19;5.50;;;4.03;;
11348;SDS011;5729;43.570;27.826;2023-06-26T11:39:46;5.03;;;3.50;;
11348;SDS011;5729;43.570;27.826;2023-06-26T11:42:11;4.28;;;3.08;;
11348;SDS011;5729;43.570;27.826;2023-06-26T11:44:40;5.78;;;3.00;;
11348;SDS011;5729;43.570;27.826;2023-06-26T11:47:08;3.55;;;3.00;;
11348;SDS011;5729;43.570;27.826;2023-06-26T11:49:37;6.18;;;3.40;;
11348;SDS011;5729;43.570;27.826;2023-06-26T11:52:02;4.32;;;3.20;;
11348;SDS011;5729;43.570;27.826;2023-06-26T11:54:29;5.28;;;3.85;;
11348;SDS011;5729;43.570;27.826;2023-06-26T11:56:56;4.60;;;3.20;;
11348;SDS011;5729;43.570;27.826;2023-06-26T11:59:23;5.38;;;3.50;;
11348;SDS011;5729;43.570;27.826;2023-06-26T12:01:50;10.30;;;3.30;;
11348;SDS011;5729;43.570;27.826;2023-06-26T12:04:17;4.82;;;3.38;;
11348;SDS011;5729;43.570;27.826;2023-06-26T12:06:48;5.88;;;3.38;;
11348;SDS011;5729;43.570;27.826;2023-06-26T12:09:16;7.82;;;3.10;;
11348;SDS011;5729;43.570;27.826;2023-06-26T12:11:44;5.15;;;3.20;;
11348;SDS011;5729;43.570;27.826;2023-06-26T12:14:15;4.82;;;3.08;;
11348;SDS011;5729;43.570;27.826;2023-06-26T12:16:43;3.53;;;3.20;;
11348;SDS011;5729;43.570;27.826;2023-06-26T12:19:08;5.90;;;3.60;;
11348;SDS011;5729;43.570;27.826;2023-06-26T12:24:03;5.22;;;3.47;;
11348;SDS011;5729;43.570;27.826;2023-06-26T12:26:29;5.15;;;3.10;;
11348;SDS011;5729;43.570;27.826;2023-06-26T12:29:17;3.47;;;3.17;;
11348;SDS011;5729;43.570;27.826;2023-06-26T12:31:43;4.57;;;3.50;;
11348;SDS011;5729;43.570;27.826;2023-06-26T12:34:12;6.97;;;3.10;;
11348;SDS011;5729;43.570;27.826;2023-06-26T12:36:43;4.65;;;3.30;;
11348;SDS011;5729;43.570;27.826;2023-06-26T12:39:15;5.25;;;3.08;;
11348;SDS011;5729;43.570;27.826;2023-06-26T12:41:46;5.25;;;3.70;;
11348;SDS011;5729;43.570;27.826;2023-06-26T12:44:16;5.10;;;3.50;;
11348;SDS011;5729;43.570;27.826;2023-06-26T12:46:56;6.43;;;3.55;;
11348;SDS011;5729;43.570;27.826;2023-06-26T12:49:33;3.60;;;3.05;;
11348;SDS011;5729;43.570;27.826;2023-06-26T12:52:00;6.57;;;3.50;;
11348;SDS011;5729;43.570;27.826;2023-06-26T12:54:26;6.55;;;3.55;;
11348;SDS011;5729;43.570;27.826;2023-06-26T12:56:52;3.72;;;3.42;;
11348;SDS011;5729;43.570;27.826;2023-06-26T12:59:18;8.10;;;3.47;;
11348;SDS011;5729;43.570;27.826;2023-06-26T13:01:43;5.75;;;3.55;;
11348;SDS011;5729;43.570;27.826;2023-06-26T13:04:09;7.10;;;3.10;;
11348;SDS011;5729;43.570;27.826;2023-06-26T13:06:35;7.57;;;3.47;;
11348;SDS011;5729;43.570;27.826;2023-06-26T13:09:01;10.07;;;3.90;;
11348;SDS011;5729;43.570;27.826;2023-06-26T13:11:29;8.20;;;3.65;;
11348;SDS011;5729;43.570;27.826;2023-06-26T13:13:55;18.65;;;4.25;;
11348;SDS011;5729;43.570;27.826;2023-06-26T13:16:21;7.70;;;3.67;;
11348;SDS011;5729;43.570;27.826;2023-06-26T13:18:46;4.20;;;3.35;;
11348;SDS011;5729;43.570;27.826;2023-06-26T13:21:12;5.05;;;2.88;;
11348;SDS011;5729;43.570;27.826;2023-06-26T13:23:37;4.18;;;3.67;;
11348;SDS011;5729;43.570;27.826;2023-06-26T13:26:04;4.72;;;3.50;;
11348;SDS011;5729;43.570;27.826;2023-06-26T13:28:30;5.38;;;3.50;;
11348;SDS011;5729;43.570;27.826;2023-06-26T13:30:56;3.90;;;3.50;;
11348;SDS011;5729;43.570;27.826;2023-06-26T13:33:21;3.92;;;2.90;;
11348;SDS011;5729;43.570;27.826;2023-06-26T13:35:51;4.88;;;3.45;;
11348;SDS011;5729;43.570;27.826;2023-06-26T13:38:18;14.05;;;3.38;;
11348;SDS011;5729;43.570;27.826;2023-06-26T13:40:49;5.65;;;3.03;;
11348;SDS011;5729;43.570;27.826;2023-06-26T13:43:18;10.50;;;3.42;;
11348;SDS011;5729;43.570;27.826;2023-06-26T13:45:45;3.65;;;3.28;;
11348;SDS011;5729;43.570;27.826;2023-06-26T13:48:11;3.22;;;2.92;;
11348;SDS011;5729;43.570;27.826;2023-06-26T13:50:36;4.57;;;3.08;;
11348;SDS011;5729;43.570;27.826;2023-06-26T13:53:02;4.18;;;3.30;;
11348;SDS011;5729;43.570;27.826;2023-06-26T13:55:27;5.93;;;3.50;;
11348;SDS011;5729;43.570;27.826;2023-06-26T13:57:53;9.13;;;3.30;;
11348;SDS011;5729;43.570;27.826;2023-06-26T14:00:20;5.43;;;3.47;;
11348;SDS011;5729;43.570;27.826;2023-06-26T14:02:47;10.57;;;3.53;;
11348;SDS011;5729;43.570;27.826;2023-06-26T14:05:12;5.65;;;3.20;;
11348;SDS011;5729;43.570;27.826;2023-06-26T14:07:38;4.85;;;3.00;;
11348;SDS011;5729;43.570;27.826;2023-06-26T14:10:04;11.23;;;3.20;;
11348;SDS011;5729;43.570;27.826;2023-06-26T14:12:31;7.97;;;3.53;;
11348;SDS011;5729;43.570;27.826;2023-06-26T14:14:57;4.95;;;2.90;;
11348;SDS011;5729;43.570;27.826;2023-06-26T14:17:23;8.00;;;3.65;;
11348;SDS011;5729;43.570;27.826;2023-06-26T14:19:53;6.63;;;3.20;;
11348;SDS011;5729;43.570;27.826;2023-06-26T14:22:19;11.13;;;3.50;;
11348;SDS011;5729;43.570;27.826;2023-06-26T14:24:44;6.22;;;3.47;;
11348;SDS011;5729;43.570;27.826;2023-06-26T14:27:10;5.75;;;3.40;;
11348;SDS011;5729;43.570;27.826;2023-06-26T14:29:36;7.85;;;3.35;;
11348;SDS011;5729;43.570;27.826;2023-06-26T14:32:02;3.55;;;3.05;;
11348;SDS011;5729;43.570;27.826;2023-06-26T14:34:28;4.88;;;3.63;;
11348;SDS011;5729;43.570;27.826;2023-06-26T14:36:53;5.70;;;3.30;;
11348;SDS011;5729;43.570;27.826;2023-06-26T14:39:19;3.45;;;3.15;;
11348;SDS011;5729;43.570;27.826;2023-06-26T14:41:45;4.30;;;3.35;;
11348;SDS011;5729;43.570;27.826;2023-06-26T14:44:12;6.82;;;2.88;;
11348;SDS011;5729;43.570;27.826;2023-06-26T14:46:38;4.78;;;3.72;;
11348;SDS011;5729;43.570;27.826;2023-06-26T14:49:03;3.78;;;3.35;;